sensor_id;sensor_type;location;lat;lon;timestamp;pressure;altitude;pressure_sealevel;temperature;humidity
10348;BME280;5220;43.192;23.284;2023-12-07T00:00:32;96777.03;;;4.77;100.00
10348;BME280;5220;43.192;23.284;2023-12-07T00:02:59;96772.34;;;4.68;100.00
10348;BME280;5220;43.192;23.284;2023-12-07T00:05:26;96767.03;;;4.71;100.00
10348;BME280;5220;43.192;23.284;2023-12-07T00:07:53;96772.41;;;4.51;100.00
10348;BME280;5220;43.192;23.284;2023-12-07T00:10:21;96775.03;;;4.67;100.00
10348;BME280;5220;43.192;23.284;2023-12-07T00:12:48;96781.25;;;4.63;100.00
10348;BME280;5220;43.192;23.284;2023-12-07T00:15:14;96776.94;;;4.63;100.00
10348;BME280;5220;43.192;23.284;2023-12-07T00:17:41;96777.94;;;4.44;100.00
10348;BME280;5220;43.192;23.284;2023-12-07T00:20:08;96781.63;;;4.55;100.00
10348;BME280;5220;43.192;23.284;2023-12-07T00:22:36;96789.00;;;4.46;100.00
10348;BME280;5220;43.192;23.284;2023-12-07T00:25:03;96802.16;;;4.57;100.00
10348;BME280;5220;43.192;23.284;2023-12-07T00:27:32;96798.34;;;4.31;100.00
10348;BME280;5220;43.192;23.284;2023-12-07T00:29:59;96799.09;;;4.33;100.00
10348;BME280;5220;43.192;23.284;2023-12-07T00:32:26;96796.72;;;4.46;100.00
10348;BME280;5220;43.192;23.284;2023-12-07T00:34:53;96791.00;;;4.23;100.00
10348;BME280;5220;43.192;23.284;2023-12-07T00:37:19;96798.72;;;4.41;100.00
10348;BME280;5220;43.192;23.284;2023-12-07T00:39:46;96797.72;;;4.43;100.00
10348;BME280;5220;43.192;23.284;2023-12-07T00:42:13;96800.38;;;4.42;100.00
10348;BME280;5220;43.192;23.284;2023-12-07T00:44:41;96799.97;;;4.49;100.00
10348;BME280;5220;43.192;23.284;2023-12-07T00:47:07;96794.41;;;4.24;100.00
10348;BME280;5220;43.192;23.284;2023-12-07T00:49:37;96796.44;;;4.34;100.00
10348;BME280;5220;43.192;23.284;2023-12-07T00:52:04;96798.56;;;4.44;100.00
10348;BME280;5220;43.192;23.284;2023-12-07T00:54:31;96799.38;;;4.44;100.00
10348;BME280;5220;43.192;23.284;2023-12-07T00:56:58;96801.81;;;4.47;100.00
10348;BME280;5220;43.192;23.284;2023-12-07T00:59:24;96804.06;;;4.53;100.00
10348;BME280;5220;43.192;23.284;2023-12-07T01:01:52;96792.25;;;4.49;100.00
10348;BME280;5220;43.192;23.284;2023-12-07T01:04:19;96791.03;;;4.56;100.00
10348;BME280;5220;43.192;23.284;2023-12-07T01:06:46;96791.72;;;4.60;100.00
10348;BME280;5220;43.192;23.284;2023-12-07T01:09:13;96788.13;;;4.62;100.00
10348;BME280;5220;43.192;23.284;2023-12-07T01:11:39;96783.47;;;4.53;100.00
10348;BME280;5220;43.192;23.284;2023-12-07T01:14:06;96790.72;;;4.62;100.00
10348;BME280;5220;43.192;23.284;2023-12-07T01:16:33;96788.50;;;4.55;100.00
10348;BME280;5220;43.192;23.284;2023-12-07T01:19:01;96798.38;;;4.64;100.00
10348;BME280;5220;43.192;23.284;2023-12-07T01:21:27;96792.53;;;4.60;100.00
10348;BME280;5220;43.192;23.284;2023-12-07T01:23:54;96791.22;;;4.69;100.00
10348;BME280;5220;43.192;23.284;2023-12-07T01:26:21;96795.47;;;4.70;100.00
10348;BME280;5220;43.192;23.284;2023-12-07T01:28:47;96788.34;;;4.58;100.00
10348;BME280;5220;43.192;23.284;2023-12-07T01:31:14;96798.28;;;4.65;100.00
10348;BME280;5220;43.192;23.284;2023-12-07T01:33:42;96800.16;;;4.62;100.00
10348;BME280;5220;43.192;23.284;2023-12-07T01:36:10;96786.13;;;4.67;100.00
10348;BME280;5220;43.192;23.284;2023-12-07T01:38:37;96799.13;;;4.66;100.00
10348;BME280;5220;43.192;23.284;2023-12-07T01:41:04;96799.84;;;4.68;100.00
10348;BME280;5220;43.192;23.284;2023-12-07T01:43:30;96801.44;;;4.70;100.00
10348;BME280;5220;43.192;23.284;2023-12-07T01:45:57;96794.31;;;4.75;100.00
10348;BME280;5220;43.192;23.284;2023-12-07T01:48:25;96801.22;;;4.75;100.00
10348;BME280;5220;43.192;23.284;2023-12-07T01:50:53;96795.03;;;4.62;100.00
10348;BME280;5220;43.192;23.284;2023-12-07T01:53:23;96793.78;;;4.69;100.00
10348;BME280;5220;43.192;23.284;2023-12-07T01:55:50;96796.44;;;4.67;100.00
10348;BME280;5220;43.192;23.284;2023-12-07T01:58:18;96797.06;;;4.72;100.00
10348;BME280;5220;43.192;23.284;2023-12-07T02:00:46;96790.16;;;4.73;100.00
10348;BME280;5220;43.192;23.284;2023-12-07T02:03:13;96789.16;;;4.75;100.00
10348;BME280;5220;43.192;23.284;2023-12-07T02:05:43;96785.81;;;4.73;100.00
10348;BME280;5220;43.192;23.284;2023-12-07T02:08:09;96782.50;;;4.71;100.00
10348;BME280;5220;43.192;23.284;2023-12-07T02:10:38;96782.34;;;4.74;100.00
10348;BME280;5220;43.192;23.284;2023-12-07T02:13:05;96784.06;;;4.74;100.00
10348;BME280;5220;43.192;23.284;2023-12-07T02:15:33;96784.06;;;4.74;100.00
10348;BME280;5220;43.192;23.284;2023-12-07T02:18:03;96783.16;;;4.75;100.00
10348;BME280;5220;43.192;23.284;2023-12-07T02:20:37;96779.19;;;4.69;100.00
10348;BME280;5220;43.192;23.284;2023-12-07T02:23:07;96780.41;;;4.62;100.00
10348;BME280;5220;43.192;23.284;2023-12-07T02:25:40;96795.63;;;4.67;100.00
10348;BME280;5220;43.192;23.284;2023-12-07T02:28:26;96780.34;;;4.64;100.00
10348;BME280;5220;43.192;23.284;2023-12-07T02:30:52;96780.91;;;4.69;100.00
10348;BME280;5220;43.192;23.284;2023-12-07T02:33:19;96774.19;;;4.66;100.00
10348;BME280;5220;43.192;23.284;2023-12-07T02:35:46;96775.25;;;4.62;100.00
10348;BME280;5220;43.192;23.284;2023-12-07T02:38:13;96780.00;;;4.70;100.00
10348;BME280;5220;43.192;23.284;2023-12-07T02:40:41;96783.41;;;4.70;100.00
10348;BME280;5220;43.192;23.284;2023-12-07T02:43:11;96784.34;;;4.69;100.00
10348;BME280;5220;43.192;23.284;2023-12-07T02:45:39;96781.97;;;4.65;100.00
10348;BME280;5220;43.192;23.284;2023-12-07T02:48:06;96784.50;;;4.66;100.00
10348;BME280;5220;43.192;23.284;2023-12-07T02:50:33;96783.34;;;4.72;100.00
10348;BME280;5220;43.192;23.284;2023-12-07T02:53:00;96793.63;;;4.72;100.00
10348;BME280;5220;43.192;23.284;2023-12-07T02:55:27;96790.81;;;4.76;100.00
10348;BME280;5220;43.192;23.284;2023-12-07T02:57:53;96794.22;;;4.77;100.00
10348;BME280;5220;43.192;23.284;2023-12-07T03:00:20;96798.38;;;4.79;100.00
10348;BME280;5220;43.192;23.284;2023-12-07T03:02:49;96803.28;;;4.84;100.00
10348;BME280;5220;43.192;23.284;2023-12-07T03:05:16;96803.38;;;4.50;100.00
10348;BME280;5220;43.192;23.284;2023-12-07T03:07:45;96805.00;;;4.68;100.00
10348;BME280;5220;43.192;23.284;2023-12-07T03:10:11;96812.41;;;4.74;100.00
10348;BME280;5220;43.192;23.284;2023-12-07T03:12:38;96801.09;;;4.76;100.00
10348;BME280;5220;43.192;23.284;2023-12-07T03:15:06;96798.47;;;4.78;100.00
10348;BME280;5220;43.192;23.284;2023-12-07T03:17:35;96796.63;;;4.80;100.00
10348;BME280;5220;43.192;23.284;2023-12-07T03:20:03;96795.72;;;4.81;100.00
10348;BME280;5220;43.192;23.284;2023-12-07T03:22:30;96797.41;;;4.82;100.00
10348;BME280;5220;43.192;23.284;2023-12-07T03:24:57;96803.28;;;4.84;100.00
10348;BME280;5220;43.192;23.284;2023-12-07T03:27:24;96803.53;;;4.79;100.00
10348;BME280;5220;43.192;23.284;2023-12-07T03:29:51;96813.09;;;4.77;100.00
10348;BME280;5220;43.192;23.284;2023-12-07T03:32:18;96804.03;;;4.86;100.00
10348;BME280;5220;43.192;23.284;2023-12-07T03:34:44;96810.88;;;4.87;100.00
10348;BME280;5220;43.192;23.284;2023-12-07T03:37:12;96818.59;;;4.87;100.00
10348;BME280;5220;43.192;23.284;2023-12-07T03:39:39;96814.78;;;4.94;100.00
10348;BME280;5220;43.192;23.284;2023-12-07T03:42:06;96823.06;;;4.83;100.00
10348;BME280;5220;43.192;23.284;2023-12-07T03:44:33;96817.69;;;4.88;100.00
10348;BME280;5220;43.192;23.284;2023-12-07T03:47:00;96820.28;;;4.88;100.00
10348;BME280;5220;43.192;23.284;2023-12-07T03:49:27;96820.28;;;4.88;100.00
10348;BME280;5220;43.192;23.284;2023-12-07T03:51:54;96823.44;;;4.93;100.00
10348;BME280;5220;43.192;23.284;2023-12-07T03:54:22;96823.09;;;4.99;100.00
10348;BME280;5220;43.192;23.284;2023-12-07T03:56:48;96823.03;;;5.01;100.00
10348;BME280;5220;43.192;23.284;2023-12-07T03:59:15;96826.34;;;5.03;100.00
10348;BME280;5220;43.192;23.284;2023-12-07T04:01:42;96826.44;;;5.01;100.00
10348;BME280;5220;43.192;23.284;2023-12-07T04:04:09;96830.25;;;4.94;100.00
10348;BME280;5220;43.192;23.284;2023-12-07T04:06:35;96824.94;;;4.97;100.00
10348;BME280;5220;43.192;23.284;2023-12-07T04:09:02;96826.53;;;5.00;100.00
10348;BME280;5220;43.192;23.284;2023-12-07T04:11:31;96834.19;;;5.01;100.00
10348;BME280;5220;43.192;23.284;2023-12-07T04:13:57;96832.50;;;5.00;100.00
10348;BME280;5220;43.192;23.284;2023-12-07T04:16:24;96831.75;;;4.98;100.00
10348;BME280;5220;43.192;23.284;2023-12-07T04:18:52;96838.41;;;5.02;100.00
10348;BME280;5220;43.192;23.284;2023-12-07T04:21:19;96835.00;;;5.02;100.00
10348;BME280;5220;43.192;23.284;2023-12-07T04:23:45;96842.56;;;5.05;100.00
10348;BME280;5220;43.192;23.284;2023-12-07T04:26:12;96848.50;;;5.07;100.00
10348;BME280;5220;43.192;23.284;2023-12-07T04:28:41;96853.97;;;5.01;100.00
10348;BME280;5220;43.192;23.284;2023-12-07T04:31:08;96858.88;;;5.05;100.00
10348;BME280;5220;43.192;23.284;2023-12-07T04:33:35;96861.38;;;5.07;100.00
10348;BME280;5220;43.192;23.284;2023-12-07T04:36:02;96860.53;;;5.06;100.00
10348;BME280;5220;43.192;23.284;2023-12-07T04:38:29;96859.47;;;5.10;100.00
10348;BME280;5220;43.192;23.284;2023-12-07T04:40:57;96856.06;;;5.10;100.00
10348;BME280;5220;43.192;23.284;2023-12-07T04:43:24;96865.69;;;5.06;100.00
10348;BME280;5220;43.192;23.284;2023-12-07T04:45:52;96865.34;;;4.97;100.00
10348;BME280;5220;43.192;23.284;2023-12-07T04:48:19;96874.81;;;4.96;100.00
10348;BME280;5220;43.192;23.284;2023-12-07T04:50:46;96868.25;;;4.91;100.00
10348;BME280;5220;43.192;23.284;2023-12-07T04:53:12;96871.50;;;4.94;100.00
10348;BME280;5220;43.192;23.284;2023-12-07T04:55:39;96870.69;;;4.76;100.00
10348;BME280;5220;43.192;23.284;2023-12-07T04:58:08;96868.63;;;4.83;100.00
10348;BME280;5220;43.192;23.284;2023-12-07T05:00:35;96873.56;;;4.87;100.00
10348;BME280;5220;43.192;23.284;2023-12-07T05:03:03;96873.97;;;4.96;100.00
10348;BME280;5220;43.192;23.284;2023-12-07T05:05:29;96868.75;;;4.97;100.00
10348;BME280;5220;43.192;23.284;2023-12-07T05:07:56;96880.66;;;5.00;100.00
10348;BME280;5220;43.192;23.284;2023-12-07T05:10:23;96878.91;;;5.00;100.00
10348;BME280;5220;43.192;23.284;2023-12-07T05:12:49;96883.81;;;5.05;100.00
10348;BME280;5220;43.192;23.284;2023-12-07T05:15:16;96887.16;;;5.07;100.00
10348;BME280;5220;43.192;23.284;2023-12-07T05:17:43;96889.75;;;5.07;100.00
10348;BME280;5220;43.192;23.284;2023-12-07T05:20:11;96891.53;;;5.05;100.00
10348;BME280;5220;43.192;23.284;2023-12-07T05:22:38;96899.13;;;5.08;100.00
10348;BME280;5220;43.192;23.284;2023-12-07T05:25:06;96889.22;;;5.00;100.00
10348;BME280;5220;43.192;23.284;2023-12-07T05:27:32;96896.63;;;5.06;100.00
10348;BME280;5220;43.192;23.284;2023-12-07T05:30:00;96906.69;;;5.11;100.00
10348;BME280;5220;43.192;23.284;2023-12-07T05:32:26;96904.28;;;5.08;100.00
10348;BME280;5220;43.192;23.284;2023-12-07T05:34:53;96908.63;;;5.07;100.00
10348;BME280;5220;43.192;23.284;2023-12-07T05:37:21;96913.78;;;5.07;100.00
10348;BME280;5220;43.192;23.284;2023-12-07T05:39:48;96915.34;;;5.10;100.00
10348;BME280;5220;43.192;23.284;2023-12-07T05:42:15;96914.84;;;5.03;100.00
10348;BME280;5220;43.192;23.284;2023-12-07T05:44:41;96910.44;;;5.05;100.00
10348;BME280;5220;43.192;23.284;2023-12-07T05:47:08;96912.78;;;5.10;100.00
10348;BME280;5220;43.192;23.284;2023-12-07T05:49:35;96911.03;;;5.10;100.00
10348;BME280;5220;43.192;23.284;2023-12-07T05:52:02;96910.03;;;5.13;100.00
10348;BME280;5220;43.192;23.284;2023-12-07T05:54:30;96906.63;;;5.12;100.00
10348;BME280;5220;43.192;23.284;2023-12-07T05:56:57;96910.09;;;5.11;100.00
10348;BME280;5220;43.192;23.284;2023-12-07T05:59:23;96909.44;;;5.08;100.00
10348;BME280;5220;43.192;23.284;2023-12-07T06:01:51;96910.19;;;5.10;100.00
10348;BME280;5220;43.192;23.284;2023-12-07T06:04:18;96903.94;;;5.14;100.00
10348;BME280;5220;43.192;23.284;2023-12-07T06:06:45;96903.38;;;5.09;100.00
10348;BME280;5220;43.192;23.284;2023-12-07T06:09:13;96909.03;;;5.15;100.00
10348;BME280;5220;43.192;23.284;2023-12-07T06:11:41;96918.44;;;5.16;100.00
10348;BME280;5220;43.192;23.284;2023-12-07T06:14:08;96914.94;;;5.17;100.00
10348;BME280;5220;43.192;23.284;2023-12-07T06:16:34;96919.00;;;5.06;100.00
10348;BME280;5220;43.192;23.284;2023-12-07T06:19:02;96916.03;;;5.13;100.00
10348;BME280;5220;43.192;23.284;2023-12-07T06:21:28;96919.13;;;5.20;100.00
10348;BME280;5220;43.192;23.284;2023-12-07T06:23:56;96921.72;;;5.20;100.00
10348;BME280;5220;43.192;23.284;2023-12-07T06:26:24;96926.59;;;5.24;100.00
10348;BME280;5220;43.192;23.284;2023-12-07T06:28:52;96932.50;;;5.26;100.00
10348;BME280;5220;43.192;23.284;2023-12-07T06:31:19;96929.78;;;5.29;100.00
10348;BME280;5220;43.192;23.284;2023-12-07T06:33:47;96933.28;;;5.28;100.00
10348;BME280;5220;43.192;23.284;2023-12-07T06:36:18;96946.00;;;5.31;100.00
10348;BME280;5220;43.192;23.284;2023-12-07T06:38:45;96943.34;;;5.33;100.00
10348;BME280;5220;43.192;23.284;2023-12-07T06:41:12;96946.53;;;5.38;100.00
10348;BME280;5220;43.192;23.284;2023-12-07T06:43:39;96940.59;;;5.36;100.00
10348;BME280;5220;43.192;23.284;2023-12-07T06:46:07;96947.38;;;5.38;100.00
10348;BME280;5220;43.192;23.284;2023-12-07T06:48:34;96942.50;;;5.32;100.00
10348;BME280;5220;43.192;23.284;2023-12-07T06:51:00;96952.75;;;5.34;100.00
10348;BME280;5220;43.192;23.284;2023-12-07T06:53:28;96946.19;;;5.28;100.00
10348;BME280;5220;43.192;23.284;2023-12-07T06:55:54;96941.91;;;5.27;100.00
10348;BME280;5220;43.192;23.284;2023-12-07T06:58:21;96943.44;;;5.31;100.00
10348;BME280;5220;43.192;23.284;2023-12-07T07:00:48;96940.03;;;5.31;100.00
10348;BME280;5220;43.192;23.284;2023-12-07T07:03:16;96942.94;;;5.08;100.00
10348;BME280;5220;43.192;23.284;2023-12-07T07:05:43;96943.56;;;5.13;100.00
10348;BME280;5220;43.192;23.284;2023-12-07T07:08:10;96947.25;;;5.24;100.00
10348;BME280;5220;43.192;23.284;2023-12-07T07:10:36;96941.34;;;5.22;100.00
10348;BME280;5220;43.192;23.284;2023-12-07T07:13:03;96948.66;;;5.30;100.00
10348;BME280;5220;43.192;23.284;2023-12-07T07:15:30;96946.00;;;5.31;100.00
10348;BME280;5220;43.192;23.284;2023-12-07T07:17:57;96950.09;;;5.35;100.00
10348;BME280;5220;43.192;23.284;2023-12-07T07:20:25;96957.06;;;5.33;100.00
10348;BME280;5220;43.192;23.284;2023-12-07T07:22:52;96946.53;;;5.38;100.00
10348;BME280;5220;43.192;23.284;2023-12-07T07:25:19;96950.59;;;5.42;100.00
10348;BME280;5220;43.192;23.284;2023-12-07T07:27:45;96955.53;;;5.47;100.00
10348;BME280;5220;43.192;23.284;2023-12-07T07:30:12;96954.47;;;5.51;100.00
10348;BME280;5220;43.192;23.284;2023-12-07T07:32:39;96955.25;;;5.51;100.00
10348;BME280;5220;43.192;23.284;2023-12-07T07:35:07;96953.34;;;5.55;100.00
10348;BME280;5220;43.192;23.284;2023-12-07T07:37:35;96957.63;;;5.56;100.00
10348;BME280;5220;43.192;23.284;2023-12-07T07:40:02;96943.84;;;5.88;100.00
10348;BME280;5220;43.192;23.284;2023-12-07T07:42:32;96948.03;;;5.58;100.00
10348;BME280;5220;43.192;23.284;2023-12-07T07:44:58;96958.63;;;5.53;100.00
10348;BME280;5220;43.192;23.284;2023-12-07T07:47:25;96962.63;;;5.59;100.00
10348;BME280;5220;43.192;23.284;2023-12-07T07:49:52;96961.53;;;5.63;100.00
10348;BME280;5220;43.192;23.284;2023-12-07T07:52:19;96977.53;;;5.69;100.00
10348;BME280;5220;43.192;23.284;2023-12-07T07:54:47;96974.13;;;5.69;100.00
10348;BME280;5220;43.192;23.284;2023-12-07T07:57:13;96979.59;;;5.63;100.00
10348;BME280;5220;43.192;23.284;2023-12-07T07:59:40;96979.13;;;5.72;100.00
10348;BME280;5220;43.192;23.284;2023-12-07T08:02:07;96980.63;;;5.76;100.00
10348;BME280;5220;43.192;23.284;2023-12-07T08:04:33;96976.28;;;5.76;100.00
10348;BME280;5220;43.192;23.284;2023-12-07T08:07:00;96970.78;;;5.82;100.00
10348;BME280;5220;43.192;23.284;2023-12-07T08:09:27;96983.63;;;5.84;100.00
10348;BME280;5220;43.192;23.284;2023-12-07T08:11:55;96988.09;;;5.80;100.00
10348;BME280;5220;43.192;23.284;2023-12-07T08:14:22;96978.78;;;5.78;100.00
10348;BME280;5220;43.192;23.284;2023-12-07T08:16:48;96981.69;;;5.72;100.00
10348;BME280;5220;43.192;23.284;2023-12-07T08:19:15;96990.94;;;5.76;100.00
10348;BME280;5220;43.192;23.284;2023-12-07T08:21:42;96985.13;;;5.72;100.00
10348;BME280;5220;43.192;23.284;2023-12-07T08:24:07;96990.94;;;5.76;100.00
10348;BME280;5220;43.192;23.284;2023-12-07T08:26:34;96993.59;;;5.74;100.00
10348;BME280;5220;43.192;23.284;2023-12-07T08:29:02;96989.94;;;5.78;100.00
10348;BME280;5220;43.192;23.284;2023-12-07T08:31:29;96992.13;;;5.86;100.00
10348;BME280;5220;43.192;23.284;2023-12-07T08:33:55;96999.66;;;5.90;100.00
10348;BME280;5220;43.192;23.284;2023-12-07T08:36:22;96995.94;;;5.79;100.00
10348;BME280;5220;43.192;23.284;2023-12-07T08:38:49;96992.75;;;5.91;100.00
10348;BME280;5220;43.192;23.284;2023-12-07T08:41:16;97001.06;;;5.96;100.00
10348;BME280;5220;43.192;23.284;2023-12-07T08:43:42;96999.88;;;6.02;100.00
10348;BME280;5220;43.192;23.284;2023-12-07T08:46:10;97004.81;;;6.06;100.00
10348;BME280;5220;43.192;23.284;2023-12-07T08:48:37;97003.06;;;6.07;100.00
10348;BME280;5220;43.192;23.284;2023-12-07T08:51:04;97005.81;;;6.04;100.00
10348;BME280;5220;43.192;23.284;2023-12-07T08:53:33;96999.56;;;6.08;100.00
10348;BME280;5220;43.192;23.284;2023-12-07T08:56:01;97002.97;;;6.08;100.00
10348;BME280;5220;43.192;23.284;2023-12-07T08:58:27;96998.66;;;6.09;100.00
10348;BME280;5220;43.192;23.284;2023-12-07T09:00:54;96996.63;;;5.98;100.00
10348;BME280;5220;43.192;23.284;2023-12-07T09:03:22;97003.97;;;6.06;100.00
10348;BME280;5220;43.192;23.284;2023-12-07T09:05:52;97002.31;;;6.05;100.00
10348;BME280;5220;43.192;23.284;2023-12-07T09:08:19;97001.22;;;6.09;100.00
10348;BME280;5220;43.192;23.284;2023-12-07T09:10:46;97002.06;;;6.09;100.00
10348;BME280;5220;43.192;23.284;2023-12-07T09:13:14;96998.88;;;6.04;100.00
10348;BME280;5220;43.192;23.284;2023-12-07T09:15:41;96998.81;;;6.06;100.00
10348;BME280;5220;43.192;23.284;2023-12-07T09:18:08;96997.97;;;6.05;100.00
10348;BME280;5220;43.192;23.284;2023-12-07T09:20:39;97000.22;;;5.95;100.00
10348;BME280;5220;43.192;23.284;2023-12-07T09:23:11;96992.81;;;6.05;100.00
10348;BME280;5220;43.192;23.284;2023-12-07T09:25:37;96996.31;;;6.04;100.00
10348;BME280;5220;43.192;23.284;2023-12-07T09:28:05;96989.41;;;6.05;100.00
10348;BME280;5220;43.192;23.284;2023-12-07T09:30:31;96992.41;;;6.13;100.00
10348;BME280;5220;43.192;23.284;2023-12-07T09:32:59;96988.09;;;6.13;100.00
10348;BME280;5220;43.192;23.284;2023-12-07T09:35:28;96992.47;;;6.11;100.00
10348;BME280;5220;43.192;23.284;2023-12-07T09:37:56;97000.72;;;6.18;100.00
10348;BME280;5220;43.192;23.284;2023-12-07T09:40:23;96990.50;;;6.16;100.00
10348;BME280;5220;43.192;23.284;2023-12-07T09:42:51;96989.56;;;6.17;100.00
10348;BME280;5220;43.192;23.284;2023-12-07T09:45:19;96989.06;;;6.11;100.00
10348;BME280;5220;43.192;23.284;2023-12-07T09:47:47;96993.81;;;6.18;100.00
10348;BME280;5220;43.192;23.284;2023-12-07T09:50:16;96984.81;;;6.25;100.00
10348;BME280;5220;43.192;23.284;2023-12-07T09:52:43;96993.38;;;6.26;100.00
10348;BME280;5220;43.192;23.284;2023-12-07T09:55:12;96991.28;;;6.32;100.00
10348;BME280;5220;43.192;23.284;2023-12-07T09:57:37;96993.63;;;6.37;100.00
10348;BME280;5220;43.192;23.284;2023-12-07T10:00:05;96997.97;;;6.36;100.00
10348;BME280;5220;43.192;23.284;2023-12-07T10:02:36;96990.16;;;6.38;100.00
10348;BME280;5220;43.192;23.284;2023-12-07T10:05:05;96988.38;;;6.38;100.00
10348;BME280;5220;43.192;23.284;2023-12-07T10:07:32;96995.88;;;6.43;100.00
10348;BME280;5220;43.192;23.284;2023-12-07T10:10:00;96988.03;;;6.44;100.00
10348;BME280;5220;43.192;23.284;2023-12-07T10:12:30;96987.66;;;6.21;100.00
10348;BME280;5220;43.192;23.284;2023-12-07T10:14:56;96993.81;;;6.34;100.00
10348;BME280;5220;43.192;23.284;2023-12-07T10:17:23;96994.53;;;6.36;100.00
10348;BME280;5220;43.192;23.284;2023-12-07T10:20:08;96993.53;;;6.38;100.00
10348;BME280;5220;43.192;23.284;2023-12-07T10:22:35;96994.38;;;6.39;100.00
10348;BME280;5220;43.192;23.284;2023-12-07T10:25:02;96990.72;;;6.43;100.00
10348;BME280;5220;43.192;23.284;2023-12-07T10:27:30;96994.03;;;6.45;100.00
10348;BME280;5220;43.192;23.284;2023-12-07T10:29:58;96992.38;;;6.44;100.00
10348;BME280;5220;43.192;23.284;2023-12-07T10:32:25;96994.31;;;6.40;100.00
10348;BME280;5220;43.192;23.284;2023-12-07T10:34:52;96986.44;;;6.42;100.00
10348;BME280;5220;43.192;23.284;2023-12-07T10:37:19;96992.28;;;6.45;100.00
10348;BME280;5220;43.192;23.284;2023-12-07T10:39:45;96989.63;;;6.47;100.00
10348;BME280;5220;43.192;23.284;2023-12-07T10:42:12;96985.44;;;6.44;100.00
10348;BME280;5220;43.192;23.284;2023-12-07T10:44:43;96995.38;;;6.36;100.00
10348;BME280;5220;43.192;23.284;2023-12-07T10:47:11;97000.38;;;6.39;100.00
10348;BME280;5220;43.192;23.284;2023-12-07T10:49:40;96993.47;;;6.40;100.00
10348;BME280;5220;43.192;23.284;2023-12-07T10:52:12;96994.53;;;6.36;100.00
10348;BME280;5220;43.192;23.284;2023-12-07T10:54:46;96996.16;;;5.91;100.00
10348;BME280;5220;43.192;23.284;2023-12-07T10:57:15;96995.00;;;5.97;100.00
10348;BME280;5220;43.192;23.284;2023-12-07T10:59:44;96988.31;;;5.93;100.00
10348;BME280;5220;43.192;23.284;2023-12-07T11:02:12;96996.31;;;6.04;100.00
10348;BME280;5220;43.192;23.284;2023-12-07T11:04:41;96996.81;;;6.11;100.00
10348;BME280;5220;43.192;23.284;2023-12-07T11:07:12;96998.13;;;6.18;100.00
10348;BME280;5220;43.192;23.284;2023-12-07T11:09:58;97003.31;;;6.18;100.00
10348;BME280;5220;43.192;23.284;2023-12-07T11:12:32;97002.13;;;6.23;100.00
10348;BME280;5220;43.192;23.284;2023-12-07T11:15:03;97001.97;;;6.26;100.00
10348;BME280;5220;43.192;23.284;2023-12-07T11:17:47;96994.16;;;6.28;100.00
10348;BME280;5220;43.192;23.284;2023-12-07T11:20:19;97004.66;;;6.25;100.00
10348;BME280;5220;43.192;23.284;2023-12-07T11:22:46;96999.56;;;6.23;100.00
10348;BME280;5220;43.192;23.284;2023-12-07T11:25:14;96998.41;;;6.13;100.00
10348;BME280;5220;43.192;23.284;2023-12-07T11:27:44;97009.31;;;6.18;100.00
10348;BME280;5220;43.192;23.284;2023-12-07T11:30:14;96996.41;;;6.18;100.00
10348;BME280;5220;43.192;23.284;2023-12-07T11:32:43;97002.91;;;6.10;100.00
10348;BME280;5220;43.192;23.284;2023-12-07T11:35:12;96987.75;;;6.04;100.00
10348;BME280;5220;43.192;23.284;2023-12-07T11:38:02;96998.59;;;6.10;100.00
10348;BME280;5220;43.192;23.284;2023-12-07T11:40:30;96986.13;;;6.17;100.00
10348;BME280;5220;43.192;23.284;2023-12-07T11:42:59;96994.72;;;6.17;100.00
10348;BME280;5220;43.192;23.284;2023-12-07T11:45:41;96992.97;;;6.18;100.00
10348;BME280;5220;43.192;23.284;2023-12-07T11:48:09;96982.25;;;6.25;100.00
10348;BME280;5220;43.192;23.284;2023-12-07T11:50:53;96994.56;;;6.05;100.00
10348;BME280;5220;43.192;23.284;2023-12-07T11:53:21;96998.59;;;6.10;100.00
10348;BME280;5220;43.192;23.284;2023-12-07T11:55:49;96995.22;;;6.08;100.00
10348;BME280;5220;43.192;23.284;2023-12-07T11:58:16;96997.81;;;6.08;100.00
10348;BME280;5220;43.192;23.284;2023-12-07T12:00:45;96994.50;;;6.06;100.00
10348;BME280;5220;43.192;23.284;2023-12-07T12:03:13;96995.56;;;6.02;100.00
10348;BME280;5220;43.192;23.284;2023-12-07T12:05:41;96995.50;;;5.88;100.00
10348;BME280;5220;43.192;23.284;2023-12-07T12:08:09;96992.44;;;5.80;100.00
10348;BME280;5220;43.192;23.284;2023-12-07T12:10:36;96991.25;;;5.54;100.00
10348;BME280;5220;43.192;23.284;2023-12-07T12:13:03;96994.56;;;5.56;100.00
10348;BME280;5220;43.192;23.284;2023-12-07T12:15:30;96999.81;;;5.70;100.00
10348;BME280;5220;43.192;23.284;2023-12-07T12:17:59;96996.72;;;5.64;100.00
10348;BME280;5220;43.192;23.284;2023-12-07T12:20:27;96994.44;;;5.75;100.00
10348;BME280;5220;43.192;23.284;2023-12-07T12:22:54;97003.53;;;5.82;100.00
10348;BME280;5220;43.192;23.284;2023-12-07T12:25:21;97003.06;;;5.91;100.00
10348;BME280;5220;43.192;23.284;2023-12-07T12:27:52;97004.66;;;5.76;100.00
10348;BME280;5220;43.192;23.284;2023-12-07T12:30:20;97003.22;;;5.88;100.00
10348;BME280;5220;43.192;23.284;2023-12-07T12:32:48;97008.22;;;5.91;100.00
10348;BME280;5220;43.192;23.284;2023-12-07T12:35:17;97012.78;;;5.86;100.00
10348;BME280;5220;43.192;23.284;2023-12-07T12:37:44;97001.28;;;5.76;100.00
10348;BME280;5220;43.192;23.284;2023-12-07T12:40:13;97007.91;;;5.80;100.00
10348;BME280;5220;43.192;23.284;2023-12-07T12:42:42;97011.34;;;5.80;100.00
10348;BME280;5220;43.192;23.284;2023-12-07T12:45:09;97013.75;;;5.83;100.00
10348;BME280;5220;43.192;23.284;2023-12-07T12:47:38;97016.34;;;5.83;100.00
10348;BME280;5220;43.192;23.284;2023-12-07T12:50:05;97019.09;;;5.80;100.00
10348;BME280;5220;43.192;23.284;2023-12-07T12:52:34;97026.53;;;5.86;100.00
10348;BME280;5220;43.192;23.284;2023-12-07T12:55:01;97026.31;;;5.91;100.00
10348;BME280;5220;43.192;23.284;2023-12-07T12:57:28;97035.94;;;5.87;100.00
10348;BME280;5220;43.192;23.284;2023-12-07T12:59:55;97026.59;;;5.85;100.00
10348;BME280;5220;43.192;23.284;2023-12-07T13:02:22;97029.66;;;5.76;100.00